sensor_id;sensor_type;location;lat;lon;timestamp;P1;durP1;ratioP1;P2;durP2;ratioP2
68947;SDS011;55996;49.546;7.400;2023-12-29T00:00:35;5.03;;;3.57;;
68947;SDS011;55996;49.546;7.400;2023-12-29T00:03:01;5.33;;;3.57;;
68947;SDS011;55996;49.546;7.400;2023-12-29T00:05:26;5.83;;;3.67;;
68947;SDS011;55996;49.546;7.400;2023-12-29T00:07:52;5.47;;;3.67;;
68947;SDS011;55996;49.546;7.400;2023-12-29T00:10:18;5.07;;;3.40;;
68947;SDS011;55996;49.546;7.400;2023-12-29T00:12:43;4.40;;;3.60;;
68947;SDS011;55996;49.546;7.400;2023-12-29T00:15:09;4.37;;;3.73;;
68947;SDS011;55996;49.546;7.400;2023-12-29T00:17:34;4.20;;;3.37;;
68947;SDS011;55996;49.546;7.400;2023-12-29T00:20:05;6.33;;;3.37;;
68947;SDS011;55996;49.546;7.400;2023-12-29T00:22:33;4.17;;;3.10;;
68947;SDS011;55996;49.546;7.400;2023-12-29T00:24:59;4.37;;;3.30;;
68947;SDS011;55996;49.546;7.400;2023-12-29T00:27:24;3.37;;;2.90;;
68947;SDS011;55996;49.546;7.400;2023-12-29T00:29:49;8.23;;;3.90;;
68947;SDS011;55996;49.546;7.400;2023-12-29T00:32:15;5.37;;;3.57;;
68947;SDS011;55996;49.546;7.400;2023-12-29T00:34:40;3.63;;;3.27;;
68947;SDS011;55996;49.546;7.400;2023-12-29T00:37:05;4.33;;;3.33;;
68947;SDS011;55996;49.546;7.400;2023-12-29T00:39:31;4.00;;;3.37;;
68947;SDS011;55996;49.546;7.400;2023-12-29T00:42:03;3.70;;;3.40;;
68947;SDS011;55996;49.546;7.400;2023-12-29T00:44:29;5.83;;;3.70;;
68947;SDS011;55996;49.546;7.400;2023-12-29T00:46:54;6.00;;;3.40;;
68947;SDS011;55996;49.546;7.400;2023-12-29T00:49:20;4.73;;;3.43;;
68947;SDS011;55996;49.546;7.400;2023-12-29T00:51:46;4.70;;;3.47;;
68947;SDS011;55996;49.546;7.400;2023-12-29T00:54:12;3.23;;;2.83;;
68947;SDS011;55996;49.546;7.400;2023-12-29T00:56:38;3.93;;;3.13;;
68947;SDS011;55996;49.546;7.400;2023-12-29T00:59:03;6.67;;;3.37;;
68947;SDS011;55996;49.546;7.400;2023-12-29T01:01:32;4.13;;;3.43;;
68947;SDS011;55996;49.546;7.400;2023-12-29T01:03:58;6.70;;;3.70;;
68947;SDS011;55996;49.546;7.400;2023-12-29T01:06:24;5.17;;;3.53;;
68947;SDS011;55996;49.546;7.400;2023-12-29T01:08:49;5.67;;;4.00;;
68947;SDS011;55996;49.546;7.400;2023-12-29T01:11:15;4.10;;;3.70;;
68947;SDS011;55996;49.546;7.400;2023-12-29T01:13:40;5.00;;;3.50;;
68947;SDS011;55996;49.546;7.400;2023-12-29T01:16:05;5.37;;;3.63;;
68947;SDS011;55996;49.546;7.400;2023-12-29T01:18:31;4.33;;;3.40;;
68947;SDS011;55996;49.546;7.400;2023-12-29T01:20:57;3.90;;;3.40;;
68947;SDS011;55996;49.546;7.400;2023-12-29T01:23:22;3.90;;;3.07;;
68947;SDS011;55996;49.546;7.400;2023-12-29T01:25:47;4.57;;;3.60;;
68947;SDS011;55996;49.546;7.400;2023-12-29T01:28:13;3.90;;;3.53;;
68947;SDS011;55996;49.546;7.400;2023-12-29T01:30:38;4.27;;;3.20;;
68947;SDS011;55996;49.546;7.400;2023-12-29T01:33:03;4.60;;;3.30;;
68947;SDS011;55996;49.546;7.400;2023-12-29T01:35:29;7.10;;;3.70;;
68947;SDS011;55996;49.546;7.400;2023-12-29T01:37:54;5.53;;;3.53;;
68947;SDS011;55996;49.546;7.400;2023-12-29T01:40:21;5.43;;;3.33;;
68947;SDS011;55996;49.546;7.400;2023-12-29T01:42:47;4.27;;;2.93;;
68947;SDS011;55996;49.546;7.400;2023-12-29T01:45:31;6.40;;;3.30;;
68947;SDS011;55996;49.546;7.400;2023-12-29T01:47:56;5.20;;;2.60;;
68947;SDS011;55996;49.546;7.400;2023-12-29T01:50:21;10.10;;;3.70;;
68947;SDS011;55996;49.546;7.400;2023-12-29T01:52:50;3.90;;;2.97;;
68947;SDS011;55996;49.546;7.400;2023-12-29T01:55:20;4.23;;;2.87;;
68947;SDS011;55996;49.546;7.400;2023-12-29T01:57:49;6.20;;;3.23;;
68947;SDS011;55996;49.546;7.400;2023-12-29T02:00:16;5.30;;;2.87;;
68947;SDS011;55996;49.546;7.400;2023-12-29T02:02:42;4.20;;;2.97;;
68947;SDS011;55996;49.546;7.400;2023-12-29T02:05:08;3.10;;;2.60;;
68947;SDS011;55996;49.546;7.400;2023-12-29T02:07:36;3.53;;;3.00;;
68947;SDS011;55996;49.546;7.400;2023-12-29T02:10:01;3.83;;;3.10;;
68947;SDS011;55996;49.546;7.400;2023-12-29T02:12:27;6.00;;;2.83;;
68947;SDS011;55996;49.546;7.400;2023-12-29T02:14:54;3.07;;;2.70;;
68947;SDS011;55996;49.546;7.400;2023-12-29T02:17:23;4.73;;;3.00;;
68947;SDS011;55996;49.546;7.400;2023-12-29T02:19:51;3.40;;;2.73;;
68947;SDS011;55996;49.546;7.400;2023-12-29T02:22:17;4.67;;;2.50;;
68947;SDS011;55996;49.546;7.400;2023-12-29T02:24:46;6.40;;;2.60;;
68947;SDS011;55996;49.546;7.400;2023-12-29T02:32:47;8.40;;;2.90;;
68947;SDS011;55996;49.546;7.400;2023-12-29T02:35:14;6.17;;;3.00;;
68947;SDS011;55996;49.546;7.400;2023-12-29T02:37:43;3.87;;;2.90;;
68947;SDS011;55996;49.546;7.400;2023-12-29T02:40:09;3.63;;;2.60;;
68947;SDS011;55996;49.546;7.400;2023-12-29T02:42:35;7.50;;;3.20;;
68947;SDS011;55996;49.546;7.400;2023-12-29T02:45:00;3.33;;;3.00;;
68947;SDS011;55996;49.546;7.400;2023-12-29T02:47:26;4.73;;;3.13;;
68947;SDS011;55996;49.546;7.400;2023-12-29T02:49:52;3.83;;;2.73;;
68947;SDS011;55996;49.546;7.400;2023-12-29T02:52:17;3.83;;;2.87;;
68947;SDS011;55996;49.546;7.400;2023-12-29T02:54:42;4.10;;;2.73;;
68947;SDS011;55996;49.546;7.400;2023-12-29T02:57:08;5.13;;;3.37;;
68947;SDS011;55996;49.546;7.400;2023-12-29T02:59:33;7.23;;;2.80;;
68947;SDS011;55996;49.546;7.400;2023-12-29T03:01:59;3.87;;;3.00;;
68947;SDS011;55996;49.546;7.400;2023-12-29T03:04:24;7.43;;;3.00;;
68947;SDS011;55996;49.546;7.400;2023-12-29T03:06:49;6.17;;;3.00;;
68947;SDS011;55996;49.546;7.400;2023-12-29T03:09:15;4.93;;;3.13;;
68947;SDS011;55996;49.546;7.400;2023-12-29T03:11:40;4.07;;;2.87;;
68947;SDS011;55996;49.546;7.400;2023-12-29T03:14:05;3.30;;;3.00;;
68947;SDS011;55996;49.546;7.400;2023-12-29T03:16:31;5.53;;;3.30;;
68947;SDS011;55996;49.546;7.400;2023-12-29T03:18:56;3.90;;;2.67;;
68947;SDS011;55996;49.546;7.400;2023-12-29T03:21:21;4.00;;;3.20;;
68947;SDS011;55996;49.546;7.400;2023-12-29T03:23:47;5.87;;;2.53;;
68947;SDS011;55996;49.546;7.400;2023-12-29T03:26:12;3.83;;;2.87;;
68947;SDS011;55996;49.546;7.400;2023-12-29T03:28:38;3.53;;;2.87;;
68947;SDS011;55996;49.546;7.400;2023-12-29T03:31:03;3.30;;;2.50;;
68947;SDS011;55996;49.546;7.400;2023-12-29T03:33:28;3.70;;;3.33;;
68947;SDS011;55996;49.546;7.400;2023-12-29T03:35:54;3.70;;;2.90;;
68947;SDS011;55996;49.546;7.400;2023-12-29T03:38:20;4.53;;;3.20;;
68947;SDS011;55996;49.546;7.400;2023-12-29T03:40:45;4.10;;;3.37;;
68947;SDS011;55996;49.546;7.400;2023-12-29T03:43:10;3.60;;;3.03;;
68947;SDS011;55996;49.546;7.400;2023-12-29T03:45:36;4.33;;;3.23;;
68947;SDS011;55996;49.546;7.400;2023-12-29T03:48:01;4.97;;;3.40;;
68947;SDS011;55996;49.546;7.400;2023-12-29T03:50:27;3.93;;;3.03;;
68947;SDS011;55996;49.546;7.400;2023-12-29T03:52:52;4.77;;;3.20;;
68947;SDS011;55996;49.546;7.400;2023-12-29T03:55:17;4.97;;;3.70;;
68947;SDS011;55996;49.546;7.400;2023-12-29T03:57:42;4.47;;;3.13;;
68947;SDS011;55996;49.546;7.400;2023-12-29T04:00:11;5.13;;;3.60;;
68947;SDS011;55996;49.546;7.400;2023-12-29T04:02:37;4.33;;;3.20;;
68947;SDS011;55996;49.546;7.400;2023-12-29T04:05:03;5.03;;;3.93;;
68947;SDS011;55996;49.546;7.400;2023-12-29T04:07:30;7.03;;;3.43;;
68947;SDS011;55996;49.546;7.400;2023-12-29T04:09:55;4.20;;;3.30;;
68947;SDS011;55996;49.546;7.400;2023-12-29T04:12:21;6.17;;;3.50;;
68947;SDS011;55996;49.546;7.400;2023-12-29T04:14:46;4.63;;;3.50;;
68947;SDS011;55996;49.546;7.400;2023-12-29T04:17:11;5.73;;;3.43;;
68947;SDS011;55996;49.546;7.400;2023-12-29T04:19:39;3.83;;;3.00;;
68947;SDS011;55996;49.546;7.400;2023-12-29T04:22:07;3.77;;;3.20;;
68947;SDS011;55996;49.546;7.400;2023-12-29T04:24:33;6.40;;;3.60;;
68947;SDS011;55996;49.546;7.400;2023-12-29T04:26:59;4.07;;;3.67;;
68947;SDS011;55996;49.546;7.400;2023-12-29T04:29:24;6.50;;;3.83;;
68947;SDS011;55996;49.546;7.400;2023-12-29T04:31:50;4.60;;;3.30;;
68947;SDS011;55996;49.546;7.400;2023-12-29T04:34:15;5.23;;;3.40;;
68947;SDS011;55996;49.546;7.400;2023-12-29T04:36:40;5.63;;;3.43;;
68947;SDS011;55996;49.546;7.400;2023-12-29T04:39:06;4.27;;;3.33;;
68947;SDS011;55996;49.546;7.400;2023-12-29T04:41:34;4.50;;;3.70;;
68947;SDS011;55996;49.546;7.400;2023-12-29T04:43:59;4.83;;;3.63;;
68947;SDS011;55996;49.546;7.400;2023-12-29T04:46:25;8.37;;;4.10;;
68947;SDS011;55996;49.546;7.400;2023-12-29T04:48:50;7.77;;;3.67;;
68947;SDS011;55996;49.546;7.400;2023-12-29T04:51:15;4.17;;;3.77;;
68947;SDS011;55996;49.546;7.400;2023-12-29T04:53:41;4.43;;;3.20;;
68947;SDS011;55996;49.546;7.400;2023-12-29T04:56:06;3.50;;;3.20;;
68947;SDS011;55996;49.546;7.400;2023-12-29T04:58:32;4.30;;;3.30;;
68947;SDS011;55996;49.546;7.400;2023-12-29T05:00:57;5.40;;;3.17;;
68947;SDS011;55996;49.546;7.400;2023-12-29T05:03:22;3.40;;;3.07;;
68947;SDS011;55996;49.546;7.400;2023-12-29T05:05:48;4.70;;;3.57;;
68947;SDS011;55996;49.546;7.400;2023-12-29T05:08:13;4.43;;;3.13;;
68947;SDS011;55996;49.546;7.400;2023-12-29T05:10:38;3.83;;;3.17;;
68947;SDS011;55996;49.546;7.400;2023-12-29T05:13:04;3.90;;;3.13;;
68947;SDS011;55996;49.546;7.400;2023-12-29T05:15:29;8.23;;;3.33;;
68947;SDS011;55996;49.546;7.400;2023-12-29T05:17:54;4.33;;;2.90;;
68947;SDS011;55996;49.546;7.400;2023-12-29T05:20:20;4.73;;;2.90;;
68947;SDS011;55996;49.546;7.400;2023-12-29T05:22:45;4.73;;;3.20;;
68947;SDS011;55996;49.546;7.400;2023-12-29T05:25:11;3.83;;;3.40;;
68947;SDS011;55996;49.546;7.400;2023-12-29T05:27:36;4.67;;;3.00;;
68947;SDS011;55996;49.546;7.400;2023-12-29T05:30:02;4.90;;;3.13;;
68947;SDS011;55996;49.546;7.400;2023-12-29T05:32:28;3.97;;;2.87;;
68947;SDS011;55996;49.546;7.400;2023-12-29T05:34:53;3.23;;;2.73;;
68947;SDS011;55996;49.546;7.400;2023-12-29T05:37:18;7.27;;;3.57;;
68947;SDS011;55996;49.546;7.400;2023-12-29T05:39:44;4.80;;;2.87;;
68947;SDS011;55996;49.546;7.400;2023-12-29T05:42:09;3.83;;;3.10;;
68947;SDS011;55996;49.546;7.400;2023-12-29T05:44:37;4.90;;;3.00;;
68947;SDS011;55996;49.546;7.400;2023-12-29T05:47:04;3.77;;;2.63;;
68947;SDS011;55996;49.546;7.400;2023-12-29T05:49:29;4.53;;;2.83;;
68947;SDS011;55996;49.546;7.400;2023-12-29T05:51:56;6.23;;;2.80;;
68947;SDS011;55996;49.546;7.400;2023-12-29T05:54:22;4.30;;;2.40;;
68947;SDS011;55996;49.546;7.400;2023-12-29T05:56:48;4.67;;;2.97;;
68947;SDS011;55996;49.546;7.400;2023-12-29T05:59:13;4.13;;;2.70;;
68947;SDS011;55996;49.546;7.400;2023-12-29T06:01:39;2.80;;;2.30;;
68947;SDS011;55996;49.546;7.400;2023-12-29T06:04:04;8.17;;;3.30;;
68947;SDS011;55996;49.546;7.400;2023-12-29T06:06:29;4.83;;;2.43;;
68947;SDS011;55996;49.546;7.400;2023-12-29T06:08:55;3.90;;;2.50;;
68947;SDS011;55996;49.546;7.400;2023-12-29T06:11:20;5.07;;;2.23;;
68947;SDS011;55996;49.546;7.400;2023-12-29T06:13:46;2.87;;;2.30;;
68947;SDS011;55996;49.546;7.400;2023-12-29T06:16:17;7.40;;;2.60;;
68947;SDS011;55996;49.546;7.400;2023-12-29T06:18:43;5.20;;;2.60;;
68947;SDS011;55996;49.546;7.400;2023-12-29T06:21:08;4.80;;;2.50;;
68947;SDS011;55996;49.546;7.400;2023-12-29T06:23:34;3.03;;;2.40;;
68947;SDS011;55996;49.546;7.400;2023-12-29T06:25:59;5.07;;;2.60;;
68947;SDS011;55996;49.546;7.400;2023-12-29T06:28:24;3.47;;;2.07;;
68947;SDS011;55996;49.546;7.400;2023-12-29T06:30:50;3.83;;;2.57;;
68947;SDS011;55996;49.546;7.400;2023-12-29T06:33:15;2.97;;;2.20;;
68947;SDS011;55996;49.546;7.400;2023-12-29T06:35:41;5.03;;;2.40;;
68947;SDS011;55996;49.546;7.400;2023-12-29T06:38:07;5.43;;;2.50;;
68947;SDS011;55996;49.546;7.400;2023-12-29T06:40:32;5.80;;;2.70;;
68947;SDS011;55996;49.546;7.400;2023-12-29T06:42:57;4.60;;;2.90;;
68947;SDS011;55996;49.546;7.400;2023-12-29T06:45:23;4.27;;;2.40;;
68947;SDS011;55996;49.546;7.400;2023-12-29T06:47:48;4.23;;;2.37;;
68947;SDS011;55996;49.546;7.400;2023-12-29T06:50:14;3.77;;;2.30;;
68947;SDS011;55996;49.546;7.400;2023-12-29T06:52:39;4.40;;;2.20;;
68947;SDS011;55996;49.546;7.400;2023-12-29T06:55:05;3.00;;;2.17;;
68947;SDS011;55996;49.546;7.400;2023-12-29T06:57:31;4.93;;;2.23;;
68947;SDS011;55996;49.546;7.400;2023-12-29T06:59:57;4.37;;;2.03;;
68947;SDS011;55996;49.546;7.400;2023-12-29T07:02:22;3.80;;;2.13;;
68947;SDS011;55996;49.546;7.400;2023-12-29T07:04:47;3.53;;;2.00;;
68947;SDS011;55996;49.546;7.400;2023-12-29T07:07:13;2.87;;;2.20;;
68947;SDS011;55996;49.546;7.400;2023-12-29T07:09:38;3.27;;;2.13;;
68947;SDS011;55996;49.546;7.400;2023-12-29T07:12:05;3.07;;;2.10;;
68947;SDS011;55996;49.546;7.400;2023-12-29T07:14:31;2.73;;;2.10;;
68947;SDS011;55996;49.546;7.400;2023-12-29T07:16:56;2.73;;;2.30;;
68947;SDS011;55996;49.546;7.400;2023-12-29T07:19:23;2.80;;;2.07;;
68947;SDS011;55996;49.546;7.400;2023-12-29T07:21:48;5.87;;;2.13;;
68947;SDS011;55996;49.546;7.400;2023-12-29T07:24:14;4.83;;;1.87;;
68947;SDS011;55996;49.546;7.400;2023-12-29T07:26:39;3.57;;;2.10;;
68947;SDS011;55996;49.546;7.400;2023-12-29T07:29:04;3.50;;;2.20;;
68947;SDS011;55996;49.546;7.400;2023-12-29T07:31:30;8.63;;;2.40;;
68947;SDS011;55996;49.546;7.400;2023-12-29T07:33:56;3.13;;;2.07;;
68947;SDS011;55996;49.546;7.400;2023-12-29T07:36:21;3.23;;;2.13;;
68947;SDS011;55996;49.546;7.400;2023-12-29T07:38:46;3.60;;;2.27;;
68947;SDS011;55996;49.546;7.400;2023-12-29T07:41:12;4.93;;;2.17;;
68947;SDS011;55996;49.546;7.400;2023-12-29T07:43:37;3.33;;;2.10;;
68947;SDS011;55996;49.546;7.400;2023-12-29T07:46:03;2.83;;;2.10;;
68947;SDS011;55996;49.546;7.400;2023-12-29T07:48:28;4.07;;;1.80;;
68947;SDS011;55996;49.546;7.400;2023-12-29T07:50:54;6.03;;;2.40;;
68947;SDS011;55996;49.546;7.400;2023-12-29T07:53:28;2.53;;;1.90;;
68947;SDS011;55996;49.546;7.400;2023-12-29T07:55:56;5.77;;;2.00;;
68947;SDS011;55996;49.546;7.400;2023-12-29T07:58:21;4.27;;;1.90;;
68947;SDS011;55996;49.546;7.400;2023-12-29T08:00:46;7.13;;;1.77;;
68947;SDS011;55996;49.546;7.400;2023-12-29T08:03:12;3.30;;;1.90;;
68947;SDS011;55996;49.546;7.400;2023-12-29T08:05:37;8.67;;;2.10;;
68947;SDS011;55996;49.546;7.400;2023-12-29T08:08:03;3.67;;;1.77;;
68947;SDS011;55996;49.546;7.400;2023-12-29T08:10:29;9.60;;;2.33;;
68947;SDS011;55996;49.546;7.400;2023-12-29T08:12:56;3.57;;;1.77;;
68947;SDS011;55996;49.546;7.400;2023-12-29T08:15:22;8.23;;;2.23;;
68947;SDS011;55996;49.546;7.400;2023-12-29T08:17:47;5.00;;;2.20;;
68947;SDS011;55996;49.546;7.400;2023-12-29T08:20:12;5.30;;;2.00;;
68947;SDS011;55996;49.546;7.400;2023-12-29T08:22:38;9.57;;;2.40;;
68947;SDS011;55996;49.546;7.400;2023-12-29T08:25:03;6.33;;;2.70;;
68947;SDS011;55996;49.546;7.400;2023-12-29T08:27:29;7.93;;;2.70;;
68947;SDS011;55996;49.546;7.400;2023-12-29T08:29:54;6.03;;;2.43;;
68947;SDS011;55996;49.546;7.400;2023-12-29T08:32:20;4.57;;;2.33;;
68947;SDS011;55996;49.546;7.400;2023-12-29T08:34:46;7.67;;;3.10;;
68947;SDS011;55996;49.546;7.400;2023-12-29T08:37:12;5.47;;;2.53;;
68947;SDS011;55996;49.546;7.400;2023-12-29T08:39:37;6.43;;;2.43;;
68947;SDS011;55996;49.546;7.400;2023-12-29T08:42:03;5.30;;;2.63;;
68947;SDS011;55996;49.546;7.400;2023-12-29T08:44:28;6.07;;;2.80;;
68947;SDS011;55996;49.546;7.400;2023-12-29T08:46:56;5.73;;;2.60;;
68947;SDS011;55996;49.546;7.400;2023-12-29T08:49:21;5.90;;;2.60;;
68947;SDS011;55996;49.546;7.400;2023-12-29T08:51:47;4.47;;;2.67;;
68947;SDS011;55996;49.546;7.400;2023-12-29T08:54:12;6.07;;;2.80;;
68947;SDS011;55996;49.546;7.400;2023-12-29T08:56:38;6.20;;;2.33;;
68947;SDS011;55996;49.546;7.400;2023-12-29T08:59:03;5.63;;;2.50;;
68947;SDS011;55996;49.546;7.400;2023-12-29T09:01:28;4.20;;;2.10;;
68947;SDS011;55996;49.546;7.400;2023-12-29T09:03:54;7.03;;;2.03;;
68947;SDS011;55996;49.546;7.400;2023-12-29T09:06:19;4.20;;;2.10;;
68947;SDS011;55996;49.546;7.400;2023-12-29T09:08:45;2.93;;;1.80;;
68947;SDS011;55996;49.546;7.400;2023-12-29T09:11:10;6.57;;;2.40;;
68947;SDS011;55996;49.546;7.400;2023-12-29T09:13:35;6.00;;;1.90;;
68947;SDS011;55996;49.546;7.400;2023-12-29T09:16:01;5.57;;;2.00;;
68947;SDS011;55996;49.546;7.400;2023-12-29T09:18:26;4.33;;;2.00;;
68947;SDS011;55996;49.546;7.400;2023-12-29T09:20:51;4.33;;;2.00;;
68947;SDS011;55996;49.546;7.400;2023-12-29T09:23:17;4.63;;;2.00;;
68947;SDS011;55996;49.546;7.400;2023-12-29T09:25:42;4.80;;;2.00;;
68947;SDS011;55996;49.546;7.400;2023-12-29T09:28:08;5.53;;;2.30;;
68947;SDS011;55996;49.546;7.400;2023-12-29T09:30:33;3.70;;;2.10;;
68947;SDS011;55996;49.546;7.400;2023-12-29T09:33:03;5.23;;;1.80;;
68947;SDS011;55996;49.546;7.400;2023-12-29T09:35:29;4.10;;;1.83;;
68947;SDS011;55996;49.546;7.400;2023-12-29T09:37:55;6.10;;;2.10;;
68947;SDS011;55996;49.546;7.400;2023-12-29T09:40:20;3.97;;;2.10;;
68947;SDS011;55996;49.546;7.400;2023-12-29T09:42:45;3.20;;;1.90;;
68947;SDS011;55996;49.546;7.400;2023-12-29T09:45:12;4.10;;;1.93;;
68947;SDS011;55996;49.546;7.400;2023-12-29T09:47:39;4.77;;;1.60;;
68947;SDS011;55996;49.546;7.400;2023-12-29T09:50:10;2.93;;;1.83;;
68947;SDS011;55996;49.546;7.400;2023-12-29T09:52:37;3.63;;;1.77;;
68947;SDS011;55996;49.546;7.400;2023-12-29T09:55:04;3.40;;;1.90;;
68947;SDS011;55996;49.546;7.400;2023-12-29T09:57:32;4.47;;;2.03;;
68947;SDS011;55996;49.546;7.400;2023-12-29T09:59:58;3.17;;;1.53;;
68947;SDS011;55996;49.546;7.400;2023-12-29T10:02:24;2.97;;;1.77;;
68947;SDS011;55996;49.546;7.400;2023-12-29T10:04:49;3.30;;;1.93;;
68947;SDS011;55996;49.546;7.400;2023-12-29T10:07:17;4.83;;;2.17;;
68947;SDS011;55996;49.546;7.400;2023-12-29T10:09:48;4.83;;;1.73;;
68947;SDS011;55996;49.546;7.400;2023-12-29T10:12:17;9.43;;;2.50;;
68947;SDS011;55996;49.546;7.400;2023-12-29T10:14:55;3.00;;;1.60;;
68947;SDS011;55996;49.546;7.400;2023-12-29T10:17:32;3.37;;;1.60;;
68947;SDS011;55996;49.546;7.400;2023-12-29T10:20:02;3.80;;;2.10;;
68947;SDS011;55996;49.546;7.400;2023-12-29T10:25:10;4.00;;;2.17;;
68947;SDS011;55996;49.546;7.400;2023-12-29T10:27:36;7.47;;;2.10;;
68947;SDS011;55996;49.546;7.400;2023-12-29T10:30:01;3.33;;;1.60;;
68947;SDS011;55996;49.546;7.400;2023-12-29T10:32:28;3.63;;;2.03;;
68947;SDS011;55996;49.546;7.400;2023-12-29T10:35:07;4.27;;;1.83;;
68947;SDS011;55996;49.546;7.400;2023-12-29T10:37:36;3.60;;;1.93;;
68947;SDS011;55996;49.546;7.400;2023-12-29T10:40:02;2.27;;;1.80;;
68947;SDS011;55996;49.546;7.400;2023-12-29T10:42:28;7.90;;;1.77;;
68947;SDS011;55996;49.546;7.400;2023-12-29T10:45:10;4.10;;;1.83;;
68947;SDS011;55996;49.546;7.400;2023-12-29T10:47:35;5.23;;;1.80;;
68947;SDS011;55996;49.546;7.400;2023-12-29T10:50:04;3.50;;;1.60;;
68947;SDS011;55996;49.546;7.400;2023-12-29T10:52:30;2.70;;;1.70;;
68947;SDS011;55996;49.546;7.400;2023-12-29T10:55:03;4.33;;;1.87;;
68947;SDS011;55996;49.546;7.400;2023-12-29T10:57:33;2.90;;;1.47;;
68947;SDS011;55996;49.546;7.400;2023-12-29T10:59:58;3.07;;;1.70;;
68947;SDS011;55996;49.546;7.400;2023-12-29T11:02:25;3.43;;;1.60;;
68947;SDS011;55996;49.546;7.400;2023-12-29T11:04:51;3.30;;;1.53;;
68947;SDS011;55996;49.546;7.400;2023-12-29T11:07:30;3.30;;;1.40;;
68947;SDS011;55996;49.546;7.400;2023-12-29T11:10:03;4.07;;;1.53;;
68947;SDS011;55996;49.546;7.400;2023-12-29T11:12:31;3.00;;;1.60;;
68947;SDS011;55996;49.546;7.400;2023-12-29T11:14:58;3.57;;;1.60;;
68947;SDS011;55996;49.546;7.400;2023-12-29T11:17:24;2.60;;;1.60;;
68947;SDS011;55996;49.546;7.400;2023-12-29T11:19:52;4.80;;;1.70;;
68947;SDS011;55996;49.546;7.400;2023-12-29T11:22:18;4.93;;;1.83;;
68947;SDS011;55996;49.546;7.400;2023-12-29T11:24:48;3.33;;;1.70;;
68947;SDS011;55996;49.546;7.400;2023-12-29T11:27:13;5.43;;;1.70;;
68947;SDS011;55996;49.546;7.400;2023-12-29T11:29:40;4.80;;;1.53;;
68947;SDS011;55996;49.546;7.400;2023-12-29T11:32:07;2.87;;;1.53;;
68947;SDS011;55996;49.546;7.400;2023-12-29T11:34:49;1.77;;;1.23;;
68947;SDS011;55996;49.546;7.400;2023-12-29T11:37:28;3.03;;;1.50;;
68947;SDS011;55996;49.546;7.400;2023-12-29T11:40:22;2.47;;;1.37;;
68947;SDS011;55996;49.546;7.400;2023-12-29T11:42:53;3.07;;;1.50;;
68947;SDS011;55996;49.546;7.400;2023-12-29T11:45:29;3.63;;;1.50;;
68947;SDS011;55996;49.546;7.400;2023-12-29T11:48:02;3.80;;;1.50;;
68947;SDS011;55996;49.546;7.400;2023-12-29T11:52:58;3.53;;;1.60;;
68947;SDS011;55996;49.546;7.400;2023-12-29T11:55:37;3.07;;;1.50;;
68947;SDS011;55996;49.546;7.400;2023-12-29T11:58:04;4.10;;;1.90;;
68947;SDS011;55996;49.546;7.400;2023-12-29T12:00:47;2.20;;;1.43;;
68947;SDS011;55996;49.546;7.400;2023-12-29T12:03:16;3.97;;;1.37;;
68947;SDS011;55996;49.546;7.400;2023-12-29T12:05:49;3.60;;;1.37;;
68947;SDS011;55996;49.546;7.400;2023-12-29T12:08:34;2.80;;;1.90;;
68947;SDS011;55996;49.546;7.400;2023-12-29T12:13:55;3.20;;;1.60;;
68947;SDS011;55996;49.546;7.400;2023-12-29T12:19:11;2.27;;;1.37;;
68947;SDS011;55996;49.546;7.400;2023-12-29T12:21:37;5.37;;;1.43;;
68947;SDS011;55996;49.546;7.400;2023-12-29T12:24:04;2.23;;;1.30;;
68947;SDS011;55996;49.546;7.400;2023-12-29T12:26:33;4.67;;;1.50;;
68947;SDS011;55996;49.546;7.400;2023-12-29T12:29:02;4.43;;;1.40;;
68947;SDS011;55996;49.546;7.400;2023-12-29T12:31:28;2.47;;;1.30;;
68947;SDS011;55996;49.546;7.400;2023-12-29T12:33:54;2.20;;;1.60;;
68947;SDS011;55996;49.546;7.400;2023-12-29T12:36:20;4.07;;;1.40;;
68947;SDS011;55996;49.546;7.400;2023-12-29T12:38:55;3.20;;;1.30;;
68947;SDS011;55996;49.546;7.400;2023-12-29T12:41:22;1.57;;;1.20;;
68947;SDS011;55996;49.546;7.400;2023-12-29T12:46:39;3.73;;;1.50;;
68947;SDS011;55996;49.546;7.400;2023-12-29T12:49:09;4.57;;;1.20;;
68947;SDS011;55996;49.546;7.400;2023-12-29T12:51:35;3.17;;;1.50;;
68947;SDS011;55996;49.546;7.400;2023-12-29T12:54:00;3.93;;;1.57;;
68947;SDS011;55996;49.546;7.400;2023-12-29T12:56:27;2.20;;;1.60;;
68947;SDS011;55996;49.546;7.400;2023-12-29T12:58:57;2.60;;;1.60;;
68947;SDS011;55996;49.546;7.400;2023-12-29T13:01:23;4.60;;;1.70;;
68947;SDS011;55996;49.546;7.400;2023-12-29T13:03:51;3.83;;;1.60;;
68947;SDS011;55996;49.546;7.400;2023-12-29T13:06:17;3.97;;;1.60;;
68947;SDS011;55996;49.546;7.400;2023-12-29T13:08:43;4.23;;;2.00;;
68947;SDS011;55996;49.546;7.400;2023-12-29T13:11:09;3.13;;;1.97;;
68947;SDS011;55996;49.546;7.400;2023-12-29T13:13:38;4.43;;;1.80;;
68947;SDS011;55996;49.546;7.400;2023-12-29T13:16:07;4.20;;;1.70;;
68947;SDS011;55996;49.546;7.400;2023-12-29T13:18:33;5.50;;;1.70;;
68947;SDS011;55996;49.546;7.400;2023-12-29T13:21:01;2.70;;;1.80;;
68947;SDS011;55996;49.546;7.400;2023-12-29T13:23:27;2.57;;;2.33;;
68947;SDS011;55996;49.546;7.400;2023-12-29T13:25:57;3.20;;;1.87;;
68947;SDS011;55996;49.546;7.400;2023-12-29T13:28:25;3.60;;;1.80;;
68947;SDS011;55996;49.546;7.400;2023-12-29T13:30:52;2.73;;;1.70;;
68947;SDS011;55996;49.546;7.400;2023-12-29T13:33:24;3.07;;;1.50;;
68947;SDS011;55996;49.546;7.400;2023-12-29T13:36:08;3.30;;;1.67;;
68947;SDS011;55996;49.546;7.400;2023-12-29T13:38:56;5.67;;;1.80;;
68947;SDS011;55996;49.546;7.400;2023-12-29T13:41:24;2.93;;;1.57;;
68947;SDS011;55996;49.546;7.400;2023-12-29T13:43:53;5.40;;;1.77;;
68947;SDS011;55996;49.546;7.400;2023-12-29T13:46:20;5.10;;;2.27;;
68947;SDS011;55996;49.546;7.400;2023-12-29T13:48:46;3.03;;;1.80;;
68947;SDS011;55996;49.546;7.400;2023-12-29T13:51:15;2.80;;;1.43;;
68947;SDS011;55996;49.546;7.400;2023-12-29T13:53:41;3.30;;;1.60;;
68947;SDS011;55996;49.546;7.400;2023-12-29T13:56:10;2.30;;;1.43;;
68947;SDS011;55996;49.546;7.400;2023-12-29T13:58:36;4.33;;;1.57;;
68947;SDS011;55996;49.546;7.400;2023-12-29T14:01:03;4.53;;;1.50;;
68947;SDS011;55996;49.546;7.400;2023-12-29T14:06:32;1.80;;;1.50;;
68947;SDS011;55996;49.546;7.400;2023-12-29T14:09:11;4.73;;;1.50;;
68947;SDS011;55996;49.546;7.400;2023-12-29T14:11:43;2.60;;;1.57;;
68947;SDS011;55996;49.546;7.400;2023-12-29T14:14:12;5.17;;;2.00;;
68947;SDS011;55996;49.546;7.400;2023-12-29T14:16:38;4.00;;;1.50;;
68947;SDS011;55996;49.546;7.400;2023-12-29T14:19:05;3.40;;;1.70;;
68947;SDS011;55996;49.546;7.400;2023-12-29T14:21:31;3.00;;;1.70;;
68947;SDS011;55996;49.546;7.400;2023-12-29T14:23:58;4.10;;;1.70;;
68947;SDS011;55996;49.546;7.400;2023-12-29T14:26:39;4.63;;;1.47;;
68947;SDS011;55996;49.546;7.400;2023-12-29T14:29:19;4.03;;;1.87;;
68947;SDS011;55996;49.546;7.400;2023-12-29T14:31:45;3.47;;;2.00;;
68947;SDS011;55996;49.546;7.400;2023-12-29T14:34:13;4.87;;;1.53;;
68947;SDS011;55996;49.546;7.400;2023-12-29T14:36:39;7.90;;;2.50;;
68947;SDS011;55996;49.546;7.400;2023-12-29T14:39:06;5.50;;;1.93;;
68947;SDS011;55996;49.546;7.400;2023-12-29T14:41:32;5.23;;;1.80;;
68947;SDS011;55996;49.546;7.400;2023-12-29T14:43:58;3.27;;;1.90;;
68947;SDS011;55996;49.546;7.400;2023-12-29T14:46:24;4.70;;;2.03;;
68947;SDS011;55996;49.546;7.400;2023-12-29T14:48:50;4.93;;;1.70;;
68947;SDS011;55996;49.546;7.400;2023-12-29T14:51:17;5.87;;;2.00;;
68947;SDS011;55996;49.546;7.400;2023-12-29T14:53:43;4.50;;;1.67;;
68947;SDS011;55996;49.546;7.400;2023-12-29T14:56:13;5.23;;;1.80;;
68947;SDS011;55996;49.546;7.400;2023-12-29T14:58:39;1.97;;;1.40;;
68947;SDS011;55996;49.546;7.400;2023-12-29T15:01:05;3.37;;;1.50;;
68947;SDS011;55996;49.546;7.400;2023-12-29T15:03:31;4.07;;;1.87;;
68947;SDS011;55996;49.546;7.400;2023-12-29T15:05:57;6.67;;;1.80;;
68947;SDS011;55996;49.546;7.400;2023-12-29T15:08:23;3.77;;;1.50;;